• Join FlightAware (Why Join?)
  • Login
  • US Flag 
08:03PM EDT


 

Airport Tracker/Info


-or-


 

Live Flight TrackerFlight Track Log ✈ UPS1331 ✈ 09-Jul-2013 ✈ KMIA - KSDF

Flight Track Log - Related Links

Times and Time Zones

All times are in EDT time to prevent confusion due to time zone crossing. See the UPS1331 flight status page for this flight to view local times or setup timezone preferences in your user account.

Time Position Orientation Groundspeed Altitude Reporting Facility
EDT Latitude Longitude Course Direction KTS MPH feet Rate Location/Type
10:19PM 25.8010 -80.3010 180° South 17 20  Level FlightAware
10:21PM 25.8010 -80.2970 90° East 78 90 420 Level FlightAware
10:21PM 25.8020 -80.2710 88° East 155 178 900 1,800 Climbing FlightAware
10:22PM 25.8040 -80.2580 80° East 167 192 1,500 1,620 Climbing FlightAware
10:22PM 25.8080 -80.2300 81° East 210 242 2,100 1,920 Climbing FlightAware
10:22PM 25.8110 -80.2030 83° East 226 260 3,200 2,460 Climbing FlightAware
10:23PM 25.8130 -80.1840 83° East 239 275 3,800 2,160 Climbing FlightAware
10:23PM 25.8170 -80.1590 80° East 263 303 4,500 2,520 Climbing FlightAware
10:23PM 25.8270 -80.1410 58° Northeast 273 314 5,300 3,000 Climbing FlightAware
10:24PM 25.8430 -80.1300 32° Northeast 277 319 6,000 3,000 Climbing FlightAware
10:24PM 25.8580 -80.1260 13° North 281 323 6,600 2,700 Climbing FlightAware
10:24PM 25.8870 -80.1370 341° North 280 322 7,700 3,120 Climbing FlightAware
10:25PM 25.9160 -80.1690 315° West 283 326 9,500 2,700 Climbing FlightAware
10:25PM 25.9530 -80.2140 312° West 309 356 10,900 1,800 Climbing FlightAware
10:26PM 26.0120 -80.2640 323° Northwest 369 425 12,100 2,160 Climbing FlightAware
10:27PM 26.0710 -80.3080 326° Northwest 401 461 14,000 2,880 Climbing FlightAware
10:27PM 26.1420 -80.3620 326° Northwest 414 476 16,200 3,060 Climbing FlightAware
10:28PM 26.2080 -80.4130 325° Northwest 426 490 18,400 3,060 Climbing FlightAware
10:29PM 26.2790 -80.4530 333° Northwest 439 505 20,300 2,700 Climbing FlightAware
10:29PM 26.3550 -80.4890 337° Northwest 451 519 22,000 2,460 Climbing FlightAware
10:30PM 26.4450 -80.5240 341° North 454 522 23,800 2,280 Climbing FlightAware
10:31PM 26.5360 -80.5540 344° North 471 542 25,500 2,160 Climbing FlightAware
10:32PM 26.6240 -80.5850 343° North 483 556 26,900 1,980 Climbing FlightAware
10:32PM 26.7100 -80.6120 344° North 482 555 28,200 2,160 Climbing FlightAware
10:33PM 26.7980 -80.6400 344° North 489 563 29,800 2,460 Climbing FlightAware
10:34PM 26.8840 -80.6690 343° North 483 556 31,500 2,280 Climbing FlightAware
10:34PM 26.9810 -80.7000 344° North 472 543 33,100 1,920 Climbing FlightAware
10:35PM 27.0670 -80.7280 344° North 473 544 34,300 1,620 Climbing FlightAware
10:36PM 27.1590 -80.7580 344° North 473 544 35,400 960 Climbing FlightAware
10:37PM 27.2820 -80.7990 343° North 473 544 36,000 420 Climbing FlightAware
10:37PM 27.3440 -80.8190 344° North 472 543 36,000  Level FlightAware
10:38PM 27.4350 -80.8490 344° North 471 542 36,000  Level FlightAware
10:39PM 27.5330 -80.8810 344° North 473 544 36,000  Level FlightAware
10:39PM 27.5950 -80.9010 344° North 473 544 36,000  Level FlightAware
10:40PM 27.6930 -80.9340 343° North 473 544 36,000  Level FlightAware
10:41PM 27.7890 -80.9650 344° North 473 544 36,000  Level FlightAware
10:41PM 27.8760 -80.9940 344° North 473 544 36,000  Level FlightAware
10:42PM 27.9590 -81.0220 343° North 473 544 36,000  Level FlightAware
10:43PM 28.0480 -81.0510 344° North 482 555 36,000  Level FlightAware
10:43PM 28.1440 -81.0830 344° North 482 555 36,000  Level FlightAware
10:44PM 28.2190 -81.1080 344° North 482 555 36,000  Level FlightAware
10:45PM 28.3040 -81.1360 344° North 473 544 36,000  Level FlightAware
10:45PM 28.4010 -81.1690 343° North 470 541 36,000  Level FlightAware
10:46PM 28.4750 -81.1930 344° North 466 536 36,000  Level FlightAware
10:47PM 28.5600 -81.2220 343° North 471 542 36,000  Level FlightAware
10:47PM 28.6430 -81.2500 344° North 469 540 36,000  Level FlightAware
10:48PM 28.7370 -81.2810 344° North 467 537 36,000 420 Level FlightAware
10:49PM 28.8210 -81.3100 343° North 469 540 36,600 720 Climbing FlightAware
10:49PM 28.9030 -81.3370 344° North 470 541 37,000 240 Climbing FlightAware
10:50PM 28.9980 -81.3690 344° North 469 540 37,000  Level FlightAware
10:51PM 29.0840 -81.3980 344° North 468 539 37,000  Level FlightAware
10:51PM 29.1550 -81.4220 344° North 466 536 37,000  Level FlightAware
10:52PM 29.2710 -81.4620 343° North 466 536 37,000  Level FlightAware
10:53PM 29.3450 -81.4870 344° North 466 536 37,000  Level FlightAware
10:54PM 29.4310 -81.5170 343° North 457 526 37,000  Level FlightAware
10:54PM 29.5180 -81.5460 344° North 466 536 37,000  Level FlightAware
10:55PM 28.9480 -81.3520 163° South 470 541 37,000  Level FlightAware
10:56PM 28.9990 -81.3700 343° North 470 541 37,000  Level FlightAware
10:56PM 29.7670 -81.6310 344° North 456 525 37,000  Level FlightAware
10:57PM 29.8610 -81.6640 343° North 464 534 37,000  Level FlightAware
10:58PM 29.9440 -81.6920 344° North 463 533 37,000  Level FlightAware
10:59PM 29.9740 -81.7030 342° North 463 533 37,000  Level FlightAware
10:59PM 30.1210 -81.7530 344° North 464 534 37,000  Level FlightAware
11:00PM 30.2140 -81.7860 343° North 464 534 37,000  Level FlightAware
11:01PM 30.2480 -81.7980 343° North 466 536 37,000  Level FlightAware
11:02PM 30.2970 -81.8150 343° North 466 536 37,000  Level FlightAware
11:02PM 30.3600 -81.8370 343° North 466 536 37,000  Level FlightAware
11:03PM 30.4250 -81.8600 343° North 466 536 37,000  Level FlightAware
11:04PM 30.5090 -81.8900 343° North 466 536 37,000  Level FlightAware
11:05PM 30.5760 -81.9140 343° North 466 536 37,000  Level FlightAware
11:05PM 30.6560 -81.9420 343° North 466 536 37,000  Level FlightAware
11:06PM 30.7200 -81.9650 343° North 466 536 37,000  Level FlightAware
11:07PM 30.8050 -81.9950 343° North 466 536 37,000  Level FlightAware
11:07PM 30.8680 -82.0180 343° North 466 536 37,000  Level FlightAware
11:08PM 30.9320 -82.0400 344° North 466 536 37,000  Level FlightAware
11:09PM 31.0170 -82.0710 343° North 466 536 37,000  Level FlightAware
11:09PM 31.0810 -82.0930 344° North 466 536 37,000  Level FlightAware
11:10PM 31.1440 -82.1160 343° North 466 536 37,000  Level FlightAware
11:11PM 31.2580 -82.1570 343° North 466 536 37,000 -360 Level FlightAware
11:16PM 32.2260 -82.4990 343° North 479 551 35,000 -420 Descending FlightAware
11:16PM 32.2940 -82.5250 342° North 479 551 35,000  Level FlightAware
11:17PM 32.3780 -82.5540 344° North 477 549 35,000  Level FlightAware
11:18PM 32.4820 -82.5920 343° North 475 547 35,000  Level FlightAware
11:19PM 32.5780 -82.6270 343° North 474 545 35,000 600 Level FlightAware
11:19PM 32.6530 -82.6790 330° Northwest 480 552 35,900 1,320 Climbing FlightAware
11:20PM 32.7100 -82.7600 310° West 481 554 36,800 780 Climbing FlightAware
11:21PM 32.7670 -82.8450 309° West 485 558 37,000 120 Climbing FlightAware
11:21PM 32.8200 -82.9230 309° West 482 555 37,000  Level FlightAware
11:22PM 32.8790 -83.0080 310° West 481 554 37,000  Level FlightAware
11:23PM 32.9380 -83.1000 307° West 482 555 37,000  Level FlightAware
11:23PM 32.9860 -83.1780 306° West 482 555 37,000  Level FlightAware
11:24PM 33.0390 -83.2630 307° West 481 554 37,000  Level FlightAware
11:25PM 33.0900 -83.3480 306° West 482 555 37,000  Level FlightAware
11:25PM 33.1490 -83.4440 306° West 482 555 37,000  Level FlightAware
11:26PM 33.2020 -83.5370 304° West 483 556 37,000  Level FlightAware
11:27PM 33.2530 -83.6340 302° West 485 558 37,000  Level FlightAware
11:27PM 33.3010 -83.7270 302° West 485 558 37,000  Level FlightAware
11:28PM 33.3420 -83.8080 301° West 484 557 37,000  Level FlightAware
11:29PM 33.3910 -83.9000 303° West 484 557 37,000  Level FlightAware
11:29PM 33.4184 -83.9539 301° West 486 559 37,000 300 Level FlightAware ADS-B
11:30PM 33.4868 -84.0716 305° West 483 556 37,400 480 Climbing FlightAware ADS-B
11:30PM 33.5007 -84.0858 320° Northwest 478 550 37,500 900 Climbing FlightAware ADS-B
11:31PM 33.5456 -84.1178 329° Northwest 473 544 37,900 900 Climbing FlightAware ADS-B
11:31PM 33.5657 -84.1269 339° North 471 542 38,000 240 Climbing FlightAware ADS-B
11:31PM 33.5938 -84.1348 347° North 469 540 38,000  Level FlightAware ADS-B
11:31PM 33.6153 -84.1373 354° North 468 539 38,000  Level FlightAware ADS-B
11:31PM 33.6316 -84.1372 360° North 467 537 38,000  Level FlightAware ADS-B
11:32PM 33.6961 -84.1308 North 466 536 38,000  Level FlightAware ADS-B
11:32PM 33.7733 -84.1224 North 464 534 38,000  Level FlightAware ADS-B
11:33PM 33.8386 -84.1152 North 464 534 38,000  Level FlightAware ADS-B
11:34PM 33.9478 -84.1035 North 467 537 38,000  Level FlightAware ADS-B
11:35PM 34.0570 -84.0920 North 469 540 38,000  Level FlightAware
11:35PM 34.1228 -84.0855 North 473 544 38,000  Level FlightAware ADS-B
11:36PM 34.1853 -84.0803 North 475 547 38,000  Level FlightAware ADS-B
11:36PM 34.1989 -84.0804 360° North 476 548 38,000  Level FlightAware ADS-B
11:36PM 34.2386 -84.0835 356° North 479 551 38,000  Level FlightAware ADS-B
11:36PM 34.2754 -84.0906 351° North 480 552 38,000  Level FlightAware ADS-B
11:37PM 34.3442 -84.1075 349° North 478 550 38,000  Level FlightAware ADS-B
11:37PM 34.4138 -84.1249 348° North 478 550 38,000  Level FlightAware ADS-B
11:38PM 34.4794 -84.1413 348° North 478 550 38,000  Level FlightAware ADS-B
11:38PM 34.5453 -84.1576 348° North 480 552 38,000  Level FlightAware ADS-B
11:39PM 34.6125 -84.1743 348° North 481 554 38,000  Level FlightAware ADS-B
11:39PM 34.6822 -84.1916 348° North 482 555 38,000  Level FlightAware ADS-B
11:40PM 34.7491 -84.2080 349° North 482 555 38,000  Level FlightAware ADS-B
11:40PM 34.8148 -84.2242 349° North 483 556 38,000  Level FlightAware ADS-B
11:41PM 34.8823 -84.2409 349° North 482 555 38,000  Level FlightAware ADS-B
11:41PM 34.9537 -84.2586 349° North 482 555 38,000  Level FlightAware ADS-B
11:42PM 35.0192 -84.2749 348° North 478 550 38,000  Level FlightAware ADS-B
11:42PM 35.0854 -84.2913 349° North 476 548 38,000  Level FlightAware ADS-B
11:43PM 35.1519 -84.3079 348° North 474 545 38,000  Level FlightAware ADS-B
11:43PM 35.2171 -84.3242 348° North 473 544 38,000  Level FlightAware ADS-B
11:44PM 35.2969 -84.3441 348° North 473 544 38,000  Level FlightAware ADS-B
11:45PM 35.3619 -84.3605 348° North 472 543 38,000  Level FlightAware ADS-B
11:45PM 35.4269 -84.3768 348° North 473 544 38,000  Level FlightAware ADS-B
11:46PM 35.4921 -84.3931 348° North 472 543 38,000  Level FlightAware ADS-B
11:46PM 35.5574 -84.4097 348° North 473 544 38,000  Level FlightAware ADS-B
11:47PM 35.6221 -84.4260 348° North 474 545 38,000  Level FlightAware ADS-B
11:47PM 35.6875 -84.4425 348° North 474 545 38,000  Level FlightAware ADS-B
11:48PM 35.7522 -84.4589 348° North 475 547 38,000  Level FlightAware ADS-B
11:48PM 35.8173 -84.4754 348° North 475 547 38,000  Level FlightAware ADS-B
11:49PM 35.8823 -84.4919 348° North 476 548 38,000  Level FlightAware ADS-B
11:49PM 35.9496 -84.5091 348° North 475 547 38,000 -240 Level FlightAware ADS-B
11:50PM 36.0152 -84.5257 348° North 474 545 37,800 -1,500 Descending FlightAware ADS-B
11:50PM 36.0962 -84.5465 348° North 472 543 36,300 -2,700 Descending FlightAware ADS-B
11:51PM 36.1626 -84.5635 348° North 482 555 34,700 -3,120 Descending FlightAware ADS-B
11:51PM 36.2412 -84.5837 348° North 490 564 32,900 -2,880 Descending FlightAware ADS-B
11:52PM 36.3082 -84.6007 348° North 486 559 31,600 -2,520 Descending FlightAware ADS-B
11:52PM 36.3864 -84.6211 348° North 451 519 30,100 -1,440 Descending FlightAware ADS-B
11:53PM 36.4481 -84.6369 348° North 439 505 30,000 -600 Descending FlightAware ADS-B
11:54PM 36.5191 -84.6552 348° North 438 504 29,500 -900 Descending FlightAware ADS-B
11:54PM 36.5804 -84.6712 348° North 437 503 29,000 -1,140 Descending FlightAware ADS-B
11:55PM 36.6397 -84.6864 348° North 432 497 28,400 -1,620 Descending FlightAware ADS-B
11:55PM 36.6993 -84.7019 348° North 429 494 27,400 -1,620 Descending FlightAware ADS-B
11:56PM 36.7575 -84.7171 348° North 414 476 26,800 -1,380 Descending FlightAware ADS-B
11:56PM 36.8143 -84.7319 348° North 407 468 26,000 -1,980 Descending FlightAware ADS-B
11:57PM 36.8704 -84.7466 348° North 398 458 24,800 -3,000 Descending FlightAware ADS-B
11:57PM 36.9246 -84.7607 348° North 392 451 23,000 -3,480 Descending FlightAware ADS-B
11:58PM 36.9781 -84.7746 348° North 381 438 21,300 -3,300 Descending FlightAware ADS-B
11:58PM 37.0301 -84.7882 348° North 369 425 19,700 -2,940 Descending FlightAware ADS-B
11:59PM 37.0848 -84.8025 348° North 366 421 18,200 -2,340 Descending FlightAware ADS-B
11:59PM 37.1423 -84.8177 348° North 366 421 17,100 -1,860 Descending FlightAware ADS-B
12:00AM 37.1970 -84.8320 348° North 356 410 16,100 -1,320 Descending FlightAware
12:01AM 37.2910 -84.8570 348° North 346 398 15,000 -660 Descending FlightAware
12:02AM 37.3400 -84.8700 348° North 346 398 15,000 -2,400 Level FlightAware
12:02AM 37.4200 -84.8910 348° North 343 395 11,900 -2,520 Descending FlightAware
12:03AM 37.4740 -84.9050 348° North 339 390 11,600 -240 Descending FlightAware
12:04AM 37.5360 -84.9220 348° North 339 390 11,600  Level FlightAware
12:04AM 37.5810 -84.9340 348° North 339 390 11,600 -540 Level FlightAware
12:07AM 37.7650 -85.1060 324° Northwest 321 369 10,000 -600 Descending FlightAware
12:07AM 37.7940 -85.1460 313° West 286 329 10,000 -420 Level FlightAware
12:07AM 37.8080 -85.1660 312° West 282 325 9,700 -1,380 Descending FlightAware
12:08AM 37.8280 -85.1940 312° West 282 325 9,100 -1,080 Descending FlightAware
12:08AM 37.8460 -85.2190 312° West 284 327 8,900 -240 Descending FlightAware
12:09AM 37.8790 -85.2640 313° West 285 328 8,900  Level FlightAware
12:09AM 37.8980 -85.2900 313° West 285 328 8,900  Level FlightAware
12:09AM 37.9130 -85.3120 311° West 285 328 8,900 -180 Level FlightAware
12:10AM 37.9350 -85.3420 313° West 285 328 8,800 -480 Descending FlightAware
12:10AM 37.9550 -85.3700 312° West 280 322 8,500 -1,200 Descending FlightAware
12:11AM 37.9710 -85.3920 313° West 280 322 8,000 -1,380 Descending FlightAware
12:11AM 37.9880 -85.4160 312° West 281 323 7,500 -1,140 Descending FlightAware
12:12AM 38.0230 -85.4650 312° West 273 314 6,900 -660 Descending FlightAware
12:12AM 38.0420 -85.4920 312° West 251 289 6,900  Level FlightAware
12:12AM 38.0650 -85.5230 313° West 233 268 6,900  Level FlightAware
12:13AM 38.0770 -85.5400 312° West 234 269 6,900  Level FlightAware
12:13AM 38.0910 -85.5600 312° West 234 269 6,900 -300 Level FlightAware
12:13AM 38.1170 -85.5840 324° Northwest 234 269 6,700 -660 Descending FlightAware
12:14AM 38.1420 -85.5960 339° North 232 267 6,300 -1,080 Descending FlightAware
12:14AM 38.1590 -85.6040 340° North 229 264 6,000 -1,020 Descending FlightAware
12:16AM 38.2860 -85.6540 343° North 232 267 4,000 -900 Descending FlightAware
12:17AM 38.3080 -85.6620 344° North 233 268 3,900 -120 Descending FlightAware
12:17AM 38.3410 -85.6740 344° North 234 269 3,900  Level FlightAware
12:17AM 38.3570 -85.6800 344° North 233 268 3,900  Level FlightAware
12:18AM 38.3850 -85.6930 340° North 205 236 3,900  Level FlightAware
12:18AM 38.3920 -85.7090 299° West 187 215 3,900  Level FlightAware
12:19AM 38.3890 -85.7510 265° West 179 206 3,900  Level FlightAware
12:19AM 38.3830 -85.7610 233° Southwest 177 204 3,900 -480 Level FlightAware
12:19AM 38.3700 -85.7680 203° Southwest 174 200 3,700 -960 Descending FlightAware
12:20AM 38.3500 -85.7780 201° Southwest 172 198 3,200 -1,080 Descending FlightAware
12:20AM 38.3180 -85.7760 177° South 175 201 2,500 -900 Descending FlightAware
12:21AM 38.3070 -85.7720 164° South 160 184 2,400 -180 Descending FlightAware
12:21AM 38.2910 -85.7670 166° South 155 178 2,400 -420 Level FlightAware
12:21AM 38.2740 -85.7610 165° South 140 161 2,100 -660 Descending FlightAware
12:22AM 38.2560 -85.7550 165° South 138 159 1,800 -660 Descending FlightAware
12:22AM 38.2390 -85.7490 165° South 136 157 1,500 -780 Descending FlightAware
12:23AM 38.2220 -85.7430 165° South 135 155 1,100 -780 Descending FlightAware
12:23AM 38.2090 -85.7390 166° South 137 158 900 -660 Descending FlightAware
12:24AM 38.1930 -85.7330 164° South 138 159 600 -780 Descending FlightAware
12:24AM 38.1850 -85.7310 169° South 139 160 400 -960 Descending FlightAware
12:24AM 38.1670 -85.7240 163° South 135 155 -720 Descending FlightAware
12:26AM 38.1710 -85.7270 329° Northwest 16 18  Level FlightAware
12:27AM 38.1760 -85.7340 312° West 27 31  Level FlightAware
12:27AM 38.1780 -85.7390 297° West 31 36  Level FlightAware
12:28AM 38.1770 -85.7430 252° West 16 18  Level FlightAware
12:29AM 38.1750 -85.7420 159° South 22 25  Level FlightAware
12:29AM 38.1720 -85.7410 165° South 26 30  Level FlightAware
12:30AM 38.1690 -85.7400 165° South 34 39  Level FlightAware